createdAt,value
2023-02-11T00:00:45.845Z,21.27
2023-02-11T00:04:54.420Z,21.73
2023-02-11T00:09:04.020Z,22.13
2023-02-11T00:13:12.666Z,27.93
2023-02-11T00:17:21.231Z,21.63
2023-02-11T00:21:30.641Z,23.67
2023-02-11T00:25:45.107Z,21.37
2023-02-11T00:29:53.740Z,21.97
2023-02-11T00:34:02.456Z,27.83
2023-02-11T00:38:11.048Z,26.37
2023-02-11T00:42:19.606Z,34.13
2023-02-11T00:46:28.250Z,22.67
2023-02-11T00:50:36.826Z,20.47
2023-02-11T00:54:45.389Z,32.97
2023-02-11T00:58:54.097Z,26.43
2023-02-11T01:03:02.671Z,26.03
2023-02-11T01:07:11.229Z,20.37
2023-02-11T01:11:21.738Z,28.00
2023-02-11T01:15:30.600Z,21.70
2023-02-11T01:19:39.688Z,21.93
2023-02-11T01:23:48.407Z,19.60
2023-02-11T01:27:57.009Z,20.17
2023-02-11T01:32:05.665Z,21.30
2023-02-11T01:36:14.231Z,22.23
2023-02-11T01:40:22.821Z,20.07
2023-02-11T01:44:37.201Z,17.43
2023-02-11T01:48:51.653Z,25.80
2023-02-11T01:53:01.912Z,18.50
2023-02-11T01:57:22.575Z,22.80
2023-02-11T02:01:34.403Z,14.17
2023-02-11T02:05:54.592Z,18.60
2023-02-11T02:10:12.196Z,15.67
2023-02-11T02:14:21.002Z,16.40
2023-02-11T02:19:05.617Z,15.27
2023-02-11T02:23:35.182Z,27.37
2023-02-11T02:28:01.771Z,16.03
2023-02-11T02:32:47.699Z,16.50
2023-02-11T02:37:19.835Z,18.67
2023-02-11T02:41:34.507Z,21.93
2023-02-11T02:45:43.056Z,13.23
2023-02-11T02:49:51.639Z,15.17
2023-02-11T02:54:22.428Z,14.57
2023-02-11T02:58:48.966Z,16.63
2023-02-11T03:03:12.295Z,11.80
2023-02-11T03:07:32.726Z,20.23
2023-02-11T03:11:41.427Z,21.73
2023-02-11T03:15:53.212Z,17.27
2023-02-11T03:20:04.497Z,13.93
2023-02-11T03:24:18.641Z,16.57
2023-02-11T03:28:39.166Z,15.83
2023-02-11T03:32:56.444Z,13.40
2023-02-11T03:37:13.963Z,15.30
2023-02-11T03:41:24.927Z,20.80
2023-02-11T03:45:33.974Z,14.70
2023-02-11T03:49:45.728Z,14.57
2023-02-11T03:53:57.684Z,16.70
2023-02-11T03:58:06.480Z,11.70
2023-02-11T04:02:15.026Z,15.87
2023-02-11T04:06:23.591Z,12.93
2023-02-11T04:10:32.152Z,12.03
2023-02-11T04:14:40.721Z,13.27
2023-02-11T04:18:49.381Z,10.60
2023-02-11T04:22:57.947Z,13.87
2023-02-11T04:27:06.577Z,19.17
2023-02-11T04:31:15.211Z,16.90
2023-02-11T04:35:23.805Z,15.50
2023-02-11T04:39:33.283Z,14.83
2023-02-11T04:43:41.821Z,19.47
2023-02-11T04:47:50.366Z,12.63
2023-02-11T04:51:59.027Z,16.93
2023-02-11T04:56:07.665Z,12.70
2023-02-11T05:00:16.923Z,14.20
2023-02-11T05:04:25.682Z,15.90
2023-02-11T05:08:34.334Z,16.10
2023-02-11T05:12:42.902Z,18.30
2023-02-11T05:16:51.508Z,13.10
2023-02-11T05:21:00.041Z,16.80
2023-02-11T05:25:08.757Z,12.60
2023-02-11T05:29:17.315Z,18.50
2023-02-11T05:33:25.871Z,19.27
2023-02-11T05:37:34.459Z,12.40
2023-02-11T05:41:42.998Z,24.10
2023-02-11T05:45:51.999Z,15.60
2023-02-11T05:50:00.799Z,24.47
2023-02-11T05:54:09.403Z,19.37
2023-02-11T05:58:17.969Z,16.97
2023-02-11T06:02:26.634Z,19.30
2023-02-11T06:06:35.266Z,23.80
2023-02-11T06:10:46.110Z,18.60
2023-02-11T06:14:54.745Z,26.77
2023-02-11T06:19:03.374Z,26.43
2023-02-11T06:23:11.952Z,18.80
2023-02-11T06:27:20.514Z,37.63
2023-02-11T06:31:29.495Z,18.67
2023-02-11T06:35:39.901Z,26.13
2023-02-11T06:39:48.536Z,21.90
2023-02-11T06:43:57.092Z,18.33
2023-02-11T06:48:05.731Z,22.58
2023-02-11T06:52:14.305Z,23.03
2023-02-11T06:56:26.451Z,17.60
2023-02-11T07:00:35.031Z,24.40
2023-02-11T07:04:43.981Z,19.07
2023-02-11T07:08:52.526Z,19.83
2023-02-11T07:13:01.107Z,24.97
2023-02-11T07:17:09.689Z,25.30
2023-02-11T07:21:21.209Z,19.30
2023-02-11T07:25:29.763Z,31.90
2023-02-11T07:29:38.333Z,22.43
2023-02-11T07:33:46.974Z,21.13
2023-02-11T07:37:55.554Z,20.47
2023-02-11T07:42:04.835Z,26.43
2023-02-11T07:46:16.574Z,43.80
2023-02-11T07:50:25.096Z,22.33
2023-02-11T07:54:33.661Z,25.47
2023-02-11T07:58:43.041Z,22.50
2023-02-11T08:02:51.606Z,27.13
2023-02-11T08:07:00.249Z,26.07
2023-02-11T08:11:10.246Z,21.60
2023-02-11T08:15:18.862Z,26.67
2023-02-11T08:19:27.611Z,24.47
2023-02-11T08:23:38.386Z,26.73
2023-02-11T08:27:47.045Z,15.90
2023-02-11T08:31:55.634Z,26.13
2023-02-11T08:36:13.092Z,25.27
2023-02-11T08:40:21.821Z,29.47
2023-02-11T08:44:30.446Z,26.10
2023-02-11T08:48:39.077Z,22.70
2023-02-11T08:52:47.710Z,26.77
2023-02-11T08:56:56.432Z,27.00
2023-02-11T09:01:13.177Z,32.57
2023-02-11T09:05:22.598Z,31.30
2023-02-11T09:09:31.159Z,33.37
2023-02-11T09:13:42.661Z,21.80
2023-02-11T09:17:51.240Z,28.80
2023-02-11T09:22:00.088Z,31.70
2023-02-11T09:26:10.179Z,31.07
2023-02-11T09:30:18.835Z,33.87
2023-02-11T09:34:27.409Z,31.87
2023-02-11T09:38:36.260Z,28.90
2023-02-11T09:43:09.009Z,35.03
2023-02-11T09:47:35.045Z,29.23
2023-02-11T09:51:58.897Z,37.48
2023-02-11T09:56:10.573Z,38.90
2023-02-11T10:00:22.376Z,29.37
2023-02-11T10:04:43.043Z,31.20
2023-02-11T10:09:09.670Z,26.03
2023-02-11T10:13:33.202Z,33.77
2023-02-11T10:18:13.275Z,29.33
2023-02-11T10:22:24.909Z,32.60
2023-02-11T10:26:36.376Z,29.67
2023-02-11T10:31:05.775Z,37.33
2023-02-11T10:35:21.377Z,33.50
2023-02-11T10:39:30.247Z,33.90
2023-02-11T10:43:39.165Z,40.30
2023-02-11T10:47:47.721Z,35.03
2023-02-11T10:51:59.354Z,32.90
2023-02-11T10:56:09.081Z,37.53
2023-02-11T11:00:21.378Z,36.00
2023-02-11T11:04:36.428Z,41.27
2023-02-11T11:08:50.420Z,31.20
2023-02-11T11:12:59.029Z,32.57
2023-02-11T11:17:10.669Z,33.87
2023-02-11T11:21:31.450Z,44.60
2023-02-11T11:25:43.084Z,40.40
2023-02-11T11:29:54.369Z,34.70
2023-02-11T11:34:06.029Z,41.57
2023-02-11T11:38:15.799Z,29.93
2023-02-11T11:42:35.551Z,47.17
2023-02-11T11:46:46.986Z,37.80
2023-02-11T11:51:04.616Z,35.20
2023-02-11T11:55:24.898Z,34.97
2023-02-11T11:59:33.548Z,39.00
2023-02-11T12:04:01.515Z,40.37
2023-02-11T12:08:21.817Z,38.23
2023-02-11T12:12:53.372Z,35.53
2023-02-11T12:17:16.971Z,37.10
2023-02-11T12:21:40.752Z,28.20
2023-02-11T12:26:08.938Z,35.07
2023-02-11T12:30:26.182Z,28.23
2023-02-11T12:34:55.907Z,42.15
2023-02-11T12:39:27.010Z,36.63
2023-02-11T12:43:38.481Z,42.20
2023-02-11T12:48:01.532Z,35.83
2023-02-11T12:52:31.107Z,38.60
2023-02-11T12:56:48.341Z,49.30
2023-02-11T13:01:08.850Z,37.57
2023-02-11T13:05:29.528Z,37.97
2023-02-11T13:09:43.894Z,33.50
2023-02-11T13:14:04.309Z,40.63
2023-02-11T13:18:44.854Z,30.10
2023-02-11T13:22:57.176Z,32.37
2023-02-11T13:27:31.700Z,36.20
2023-02-11T13:31:40.366Z,35.87
2023-02-11T13:36:02.112Z,44.93
2023-02-11T13:40:26.094Z,36.53
2023-02-11T13:44:35.583Z,36.50
2023-02-11T13:48:49.198Z,41.93
2023-02-11T13:53:03.570Z,38.20
2023-02-11T13:57:23.724Z,39.47
2023-02-11T14:01:44.387Z,40.67
2023-02-11T14:06:37.946Z,37.47
2023-02-11T14:10:52.752Z,40.33
2023-02-11T14:15:08.062Z,32.63
2023-02-11T14:19:19.713Z,40.33
2023-02-11T14:23:28.534Z,36.13
2023-02-11T14:27:45.902Z,33.87
2023-02-11T14:32:21.104Z,33.83
2023-02-11T14:36:46.213Z,38.17
2023-02-11T14:41:06.766Z,30.30
2023-02-11T14:45:18.508Z,29.00
2023-02-11T14:49:33.540Z,35.70
2023-02-11T14:53:47.309Z,31.20
2023-02-11T14:58:17.551Z,33.73
2023-02-11T15:02:32.198Z,32.10
2023-02-11T15:06:42.701Z,35.13
2023-02-11T15:10:51.766Z,29.30
2023-02-11T15:15:01.861Z,40.40
2023-02-11T15:19:13.502Z,29.33
2023-02-11T15:23:27.493Z,28.83
2023-02-11T15:27:47.491Z,39.63
2023-02-11T15:32:07.586Z,37.03
2023-02-11T15:36:17.726Z,29.53
2023-02-11T15:40:29.719Z,34.03
2023-02-11T15:44:38.291Z,28.67
2023-02-11T15:48:50.240Z,33.40
2023-02-11T15:53:01.844Z,26.33
2023-02-11T15:57:11.535Z,26.07
2023-02-11T16:01:20.151Z,30.90
2023-02-11T16:05:40.706Z,43.40
2023-02-11T16:09:52.324Z,33.73
2023-02-11T16:14:03.234Z,33.93
2023-02-11T16:18:28.458Z,42.00
2023-02-11T16:22:34.079Z,37.83
2023-02-11T16:26:45.068Z,42.53
2023-02-11T16:30:55.299Z,33.53
2023-02-11T16:35:05.714Z,35.70
2023-02-11T16:39:14.712Z,39.07
2023-02-11T16:43:23.283Z,35.87
2023-02-11T16:47:32.021Z,33.17
2023-02-11T16:51:41.995Z,35.33
2023-02-11T16:55:51.388Z,37.00
2023-02-11T17:00:00.360Z,34.47
2023-02-11T17:04:14.791Z,37.97
2023-02-11T17:08:24.185Z,33.17
2023-02-11T17:12:32.736Z,39.50
2023-02-11T17:16:41.499Z,39.50
2023-02-11T17:20:50.188Z,50.97
2023-02-11T17:24:58.889Z,33.63
2023-02-11T17:29:09.907Z,38.97
2023-02-11T17:33:19.118Z,38.37
2023-02-11T17:37:28.733Z,41.17
2023-02-11T17:41:40.944Z,45.53
2023-02-11T17:45:49.759Z,38.23
2023-02-11T17:49:58.487Z,47.07
2023-02-11T17:54:10.040Z,36.57
2023-02-11T17:58:18.595Z,40.63
2023-02-11T18:02:27.170Z,39.83
2023-02-11T18:06:35.887Z,47.20
2023-02-11T18:10:44.439Z,39.20
2023-02-11T18:14:58.029Z,41.97
2023-02-11T18:19:07.540Z,43.83
2023-02-11T18:23:16.072Z,40.97
2023-02-11T18:27:24.655Z,42.57
2023-02-11T18:31:35.137Z,36.07
2023-02-11T18:35:45.774Z,44.20
2023-02-11T18:39:54.536Z,41.97
2023-02-11T18:44:04.429Z,50.10
2023-02-11T18:48:13.056Z,48.40
2023-02-11T18:52:21.690Z,51.27
2023-02-11T18:56:30.254Z,46.37
2023-02-11T19:00:41.046Z,54.37
2023-02-11T19:04:49.628Z,42.27
2023-02-11T19:09:01.273Z,46.90
2023-02-11T19:13:10.550Z,45.47
2023-02-11T19:17:19.130Z,46.70
2023-02-11T19:21:27.727Z,45.07
2023-02-11T19:25:36.526Z,61.47
2023-02-11T19:29:45.083Z,38.97
2023-02-11T19:33:53.633Z,52.90
2023-02-11T19:38:02.768Z,51.00
2023-02-11T19:42:11.791Z,48.90
2023-02-11T19:46:25.002Z,47.20
2023-02-11T19:50:33.522Z,49.63
2023-02-11T19:54:42.072Z,36.03
2023-02-11T19:58:50.716Z,40.93
2023-02-11T20:02:59.410Z,50.60
2023-02-11T20:07:08.783Z,43.27
2023-02-11T20:11:18.435Z,48.20
2023-02-11T20:15:27.118Z,42.20
2023-02-11T20:19:35.684Z,46.37
2023-02-11T20:23:46.371Z,46.40
2023-02-11T20:27:55.201Z,53.87
2023-02-11T20:32:03.981Z,53.60
2023-02-11T20:36:15.716Z,48.30
2023-02-11T20:40:24.278Z,44.43
2023-02-11T20:44:32.837Z,59.30
2023-02-11T20:48:41.390Z,39.30
2023-02-11T20:52:49.991Z,42.40
2023-02-11T20:56:59.641Z,40.87
2023-02-11T21:01:15.210Z,41.30
2023-02-11T21:05:23.766Z,46.53
2023-02-11T21:09:34.259Z,61.43
2023-02-11T21:13:43.549Z,45.50
2023-02-11T21:17:52.198Z,39.60
2023-02-11T21:22:01.709Z,49.47
2023-02-11T21:26:10.355Z,56.10
2023-02-11T21:30:19.042Z,52.13
2023-02-11T21:34:27.624Z,47.10
2023-02-11T21:38:37.161Z,51.10
2023-02-11T21:42:45.729Z,43.40
2023-02-11T21:46:54.326Z,40.30
2023-02-11T21:51:07.878Z,61.05
2023-02-11T21:55:16.419Z,41.50
2023-02-11T21:59:25.153Z,46.30
2023-02-11T22:03:33.731Z,47.10
2023-02-11T22:07:42.306Z,41.97
2023-02-11T22:11:50.885Z,52.27
2023-02-11T22:16:00.988Z,47.33
2023-02-11T22:20:10.211Z,45.27
2023-02-11T22:24:18.726Z,44.67
2023-02-11T22:28:27.329Z,47.77
2023-02-11T22:32:35.926Z,45.63
2023-02-11T22:36:45.355Z,36.77
2023-02-11T22:40:53.924Z,48.67
2023-02-11T22:45:03.058Z,37.70
2023-02-11T22:49:14.569Z,40.37
2023-02-11T22:53:24.757Z,45.27
2023-02-11T22:57:33.394Z,43.87
2023-02-11T23:01:42.529Z,41.00
2023-02-11T23:05:51.061Z,40.93
2023-02-11T23:09:59.631Z,37.83
2023-02-11T23:14:10.141Z,49.30
2023-02-11T23:18:18.674Z,45.13
2023-02-11T23:22:27.237Z,40.93
2023-02-11T23:26:35.944Z,42.83
2023-02-11T23:30:44.509Z,36.57
2023-02-11T23:34:53.076Z,43.37
2023-02-11T23:39:01.723Z,49.20
2023-02-11T23:43:10.300Z,37.77
2023-02-11T23:47:18.869Z,43.33
2023-02-11T23:51:27.494Z,50.03
2023-02-11T23:55:37.698Z,38.87
2023-02-11T23:59:47.810Z,48.87
